This is the latest recevied weather packets stored in our database for station/object DO6MJ-1. If no packets are shown the sender has not sent any weather packets the latest 1 day(s).
| Time | Temp. | Humidity | Pressure | Rain* | Wind** | Luminosity | Snow |
|---|---|---|---|---|---|---|---|
| 1836274251 | 13.33° C | 89% | 1009 hPa | 0 mm | 0 m/s | - | - |
| 1778018595 | 10.56° C | 91% | 1000.9 hPa | 0 mm | 0 m/s | - | - |
| 1778017395 | 10.56° C | 91% | 1000.9 hPa | 0 mm | 0 m/s | - | - |
| 1778016195 | 11.11° C | 91% | 1001.1 hPa | 0 mm | 0 m/s | - | - |
| 1778014994 | 11.11° C | 91% | 1001.5 hPa | 0 mm | 0 m/s | - | - |
| 1778013794 | 11.11° C | 90% | 1001.2 hPa | 0 mm | 1.34 m/s, 49° | - | - |
| 1778012594 | 11.11° C | 90% | 1001.3 hPa | 0 mm | 0.89 m/s, 49° | - | - |
| 1778011393 | 11.11° C | 90% | 1001.3 hPa | 0 mm | 0 m/s | - | - |
| 1778010193 | 11.11° C | 89% | 1001.3 hPa | 0 mm | 0 m/s | - | - |
| 1778008993 | 11.67° C | 89% | 1001.3 hPa | 0 mm | 0.89 m/s, 46° | - | - |
| 1778007793 | 11.67° C | 89% | 1001.3 hPa | 0 mm | 0 m/s | - | - |
| 1778006592 | 11.67° C | 89% | 1001.1 hPa | 0 mm | 0.89 m/s, 45° | - | - |
| 1778005392 | 12.22° C | 89% | 1001.1 hPa | 0 mm | 0.89 m/s, 51° | - | - |
| 1778004192 | 12.22° C | 89% | 1001.2 hPa | 0 mm | 0 m/s | - | - |
| 1778002991 | 12.22° C | 89% | 1001.3 hPa | 0 mm | 0 m/s | - | - |
| 1778001792 | 12.22° C | 88% | 1001.5 hPa | 0 mm | 0 m/s | - | - |
| 1778000591 | 12.78° C | 88% | 1001.5 hPa | 0 mm | 0 m/s | - | - |
| 1777999391 | 12.78° C | 88% | 1001.5 hPa | 0 mm | 0.45 m/s, 54° | - | - |
| 1777998190 | 12.78° C | 87% | 1001.6 hPa | 0 mm | 0 m/s | - | - |
| 1777996990 | 13.33° C | 87% | 1001.7 hPa | 0 mm | 0.45 m/s, 62° | - | - |
| 1777995790 | 13.33° C | 86% | 1001.6 hPa | 0 mm | 0 m/s | - | - |
| 1777994589 | 13.89° C | 86% | 1001.7 hPa | 0 mm | 0.45 m/s, 27° | - | - |
| 1777993389 | 13.89° C | 86% | 1001.7 hPa | 0 mm | 0 m/s | - | - |
| 1777992189 | 13.89° C | 86% | 1001.9 hPa | 0 mm | 0 m/s | - | - |
| 1777990989 | 13.33° C | 87% | 1002.1 hPa | 0 mm | 0.45 m/s, 45° | - | - |
* Rain latest hour (hover to see other rain measurements)
** Current wind speed in m/s (hover to see current wind gust speed)